< < Back
Terminal Aerodrome Forecast


Current Version              Previous Versions:   1  2  3  4  5  6  7  8  9  

Terminal Aerodrome Forecast

455
FTUS42 KCHS 241127
TAFSAV
TAF
KSAV 241127Z 2412/2512 22004KT P6SM SCT250
     FM241800 15010KT P6SM SCT040
     FM250100 18004KT P6SM FEW080=

Latest METAR

229
SAUS80 KWBC 241400
MTRSAV
METAR KSAV 241353Z 24005KT 10SM FEW250 30/23 A3005 RMK AO2 SLP176
T03000228


USA.gov is the U.S. government's official web portal to all federal, state and local government web resources and services.